Terminal Aerodrome Forecast
Issued by NWS

Home | Current Version | Previous Version | Text Only | Print | Product List | Glossary On
Versions: 1 2 3 4 5 6 7 8 9 10 11 12 13
597
FTUS41 KPHI 251123
TAFPNE
TAF
KPNE 251123Z 2512/2612 10010KT 3SM BR OVC004
      TEMPO 2512/2516 2SM RA BR
     FM251600 07006KT P6SM OVC007
      TEMPO 2516/2517 5SM -SHRA
     FM251700 06005KT P6SM VCSH OVC007
     FM252100 04004KT P6SM OVC007 PROB30 2521/2603 3SM -SHRA BR
     FM260500 33006KT P6SM BKN005
     FM261000 30008KT P6SM SCT040=

USA.gov is the U.S. government's official web portal to all federal, state and local government web resources and services.